createdAt,value
2018-10-02T11:35:28.801Z,1009.37
2018-10-02T11:36:28.766Z,1009.38
2018-10-02T11:37:28.746Z,1009.31
2018-10-02T11:38:28.716Z,1009.28
2018-10-02T11:39:28.693Z,1009.34
2018-10-02T11:40:28.684Z,1009.29
2018-10-02T11:41:28.654Z,1009.27
2018-10-02T11:42:28.630Z,1009.26
2018-10-02T11:43:28.631Z,1009.27
2018-10-02T11:44:28.625Z,1009.31
2018-10-02T11:45:28.579Z,1009.25
2018-10-02T11:46:28.549Z,1009.29
2018-10-02T11:47:28.530Z,1009.27
2018-10-02T11:48:28.511Z,1009.27
2018-10-02T11:49:28.502Z,1009.22
2018-10-02T11:50:28.491Z,1009.24
2018-10-02T11:51:28.452Z,1009.24
2018-10-02T11:52:28.431Z,1009.26
2018-10-02T11:53:28.410Z,1009.27
2018-10-02T11:54:28.393Z,1009.27
2018-10-02T11:55:28.481Z,1009.25
2018-10-02T11:56:28.376Z,1009.30
2018-10-02T11:57:28.382Z,1009.27
2018-10-02T11:58:28.314Z,1009.25
2018-10-02T11:59:28.294Z,1009.27
2018-10-02T12:00:28.337Z,1009.21
2018-10-02T12:01:28.294Z,1009.24
2018-10-02T12:02:28.267Z,1009.22
2018-10-02T12:03:28.319Z,1009.24
2018-10-02T12:04:28.198Z,1009.19
2018-10-02T12:05:28.180Z,1009.20
2018-10-02T12:06:28.158Z,1009.19
2018-10-02T12:07:28.147Z,1009.19
2018-10-02T12:08:28.121Z,1009.18
2018-10-02T12:09:28.104Z,1009.18
2018-10-02T12:10:28.082Z,1009.16
2018-10-02T12:11:28.129Z,1009.09
2018-10-02T12:12:28.081Z,1009.06
2018-10-02T12:13:28.107Z,1009.09
2018-10-02T12:14:28.164Z,1009.10
2018-10-02T12:15:27.987Z,1009.09
2018-10-02T12:16:27.978Z,1009.05
2018-10-02T12:17:27.947Z,1009.08
2018-10-02T12:18:27.937Z,1009.09
2018-10-02T12:19:28.022Z,1008.99
2018-10-02T12:20:27.894Z,1008.96
2018-10-02T12:21:27.871Z,1008.99
2018-10-02T12:22:27.853Z,1008.93
2018-10-02T12:23:27.895Z,1008.92
2018-10-02T12:24:27.814Z,1008.91
2018-10-02T12:25:27.797Z,1008.93
2018-10-02T12:26:27.775Z,1008.94
2018-10-02T12:27:27.761Z,1008.89
2018-10-02T12:28:27.760Z,1008.86
2018-10-02T12:29:27.721Z,1008.86
2018-10-02T12:30:27.703Z,1008.86
2018-10-02T12:31:27.681Z,1008.82
2018-10-02T12:32:27.662Z,1008.76
2018-10-02T12:33:27.647Z,1008.81
2018-10-02T12:34:27.634Z,1008.79
2018-10-02T12:35:27.605Z,1008.79
2018-10-02T12:36:27.587Z,1008.77
2018-10-02T12:37:27.568Z,1008.78
2018-10-02T12:38:27.573Z,1008.73
2018-10-02T12:39:27.595Z,1008.72
2018-10-02T12:40:27.511Z,1008.78
2018-10-02T12:41:27.495Z,1008.82
2018-10-02T12:42:27.474Z,1008.82
2018-10-02T12:43:27.452Z,1008.82
2018-10-02T12:44:27.446Z,1008.83
2018-10-02T12:45:27.417Z,1008.81
2018-10-02T12:46:27.402Z,1008.82
2018-10-02T12:47:27.379Z,1008.84
2018-10-02T12:48:27.408Z,1008.84
2018-10-02T12:49:27.352Z,1008.92
2018-10-02T12:50:27.318Z,1008.88
2018-10-02T12:51:27.301Z,1008.86
2018-10-02T12:52:27.410Z,1008.90
2018-10-02T12:53:27.261Z,1008.89
2018-10-02T12:54:27.253Z,1008.94
2018-10-02T12:55:27.222Z,1008.92
2018-10-02T12:56:27.228Z,1008.90
2018-10-02T12:57:27.191Z,1008.92
2018-10-02T12:58:27.168Z,1008.87
2018-10-02T12:59:27.340Z,1008.83
2018-10-02T13:00:27.126Z,1008.82
2018-10-02T13:01:27.108Z,1008.85
2018-10-02T13:02:27.090Z,1008.85
2018-10-02T13:03:27.074Z,1008.84
2018-10-02T13:04:27.055Z,1008.79
2018-10-02T13:05:27.042Z,1008.83
2018-10-02T13:06:27.009Z,1008.79
2018-10-02T13:07:26.992Z,1008.80
2018-10-02T13:08:26.973Z,1008.79
2018-10-02T13:09:26.953Z,1008.72
2018-10-02T13:10:26.940Z,1008.75
2018-10-02T13:11:26.913Z,1008.72
2018-10-02T13:12:26.892Z,1008.68
2018-10-02T13:13:26.876Z,1008.69
2018-10-02T13:14:26.859Z,1008.71
2018-10-02T13:15:26.846Z,1008.73
2018-10-02T13:16:26.861Z,1008.74
2018-10-02T13:17:26.796Z,1008.78
2018-10-02T13:18:26.777Z,1008.78
2018-10-02T13:19:26.777Z,1008.79
2018-10-02T13:20:26.750Z,1008.77
2018-10-02T13:21:26.721Z,1008.77
2018-10-02T13:22:26.700Z,1008.74
2018-10-02T13:23:26.681Z,1008.77
2018-10-02T13:24:26.661Z,1008.72
2018-10-02T13:25:26.725Z,1008.75
2018-10-02T13:26:26.622Z,1008.73
2018-10-02T13:27:26.603Z,1008.70
2018-10-02T13:28:26.584Z,1008.68
2018-10-02T13:29:26.566Z,1008.71
2018-10-02T13:30:26.559Z,1008.71
2018-10-02T13:31:26.527Z,1008.73
2018-10-02T13:32:26.534Z,1008.75
2018-10-02T13:33:26.490Z,1008.76
2018-10-02T13:34:26.487Z,1008.76
2018-10-02T13:35:26.459Z,1008.79
2018-10-02T13:36:26.431Z,1008.80
2018-10-02T13:37:26.412Z,1008.79
